sensor_id;sensor_type;location;lat;lon;timestamp;temperature;humidity
50013;DHT22;35901;48.694;9.476;2022-07-23T00:00:00;21.90;98.70
50013;DHT22;35901;48.694;9.476;2022-07-23T00:02:26;21.80;99.90
50013;DHT22;35901;48.694;9.476;2022-07-23T00:04:52;21.80;99.90
50013;DHT22;35901;48.694;9.476;2022-07-23T00:07:18;21.90;99.70
50013;DHT22;35901;48.694;9.476;2022-07-23T00:09:44;21.80;99.90
50013;DHT22;35901;48.694;9.476;2022-07-23T00:12:11;21.80;99.90
50013;DHT22;35901;48.694;9.476;2022-07-23T00:14:39;21.80;99.90
50013;DHT22;35901;48.694;9.476;2022-07-23T00:17:11;21.80;99.90
50013;DHT22;35901;48.694;9.476;2022-07-23T00:19:41;21.80;99.90
50013;DHT22;35901;48.694;9.476;2022-07-23T00:22:07;21.80;99.90
50013;DHT22;35901;48.694;9.476;2022-07-23T00:24:33;21.70;99.90
50013;DHT22;35901;48.694;9.476;2022-07-23T00:26:58;21.60;99.90
50013;DHT22;35901;48.694;9.476;2022-07-23T00:29:24;21.50;99.90
50013;DHT22;35901;48.694;9.476;2022-07-23T00:31:50;21.30;99.90
50013;DHT22;35901;48.694;9.476;2022-07-23T00:34:15;21.40;99.90
50013;DHT22;35901;48.694;9.476;2022-07-23T00:36:41;21.50;99.90
50013;DHT22;35901;48.694;9.476;2022-07-23T00:39:07;21.50;99.90
50013;DHT22;35901;48.694;9.476;2022-07-23T00:41:32;21.50;99.90
50013;DHT22;35901;48.694;9.476;2022-07-23T00:44:15;21.50;99.90
50013;DHT22;35901;48.694;9.476;2022-07-23T00:46:46;21.50;99.90
50013;DHT22;35901;48.694;9.476;2022-07-23T00:49:11;21.60;99.90
50013;DHT22;35901;48.694;9.476;2022-07-23T00:51:37;21.60;99.90
50013;DHT22;35901;48.694;9.476;2022-07-23T00:54:03;21.40;99.90
50013;DHT22;35901;48.694;9.476;2022-07-23T00:56:30;21.40;99.90
50013;DHT22;35901;48.694;9.476;2022-07-23T00:58:56;21.40;99.90
50013;DHT22;35901;48.694;9.476;2022-07-23T01:01:22;21.20;99.90
50013;DHT22;35901;48.694;9.476;2022-07-23T01:03:48;21.20;99.90
50013;DHT22;35901;48.694;9.476;2022-07-23T01:06:14;21.00;99.90
50013;DHT22;35901;48.694;9.476;2022-07-23T01:08:41;21.00;99.90
50013;DHT22;35901;48.694;9.476;2022-07-23T01:11:08;20.90;99.90
50013;DHT22;35901;48.694;9.476;2022-07-23T01:13:34;20.90;99.90
50013;DHT22;35901;48.694;9.476;2022-07-23T01:16:00;20.90;99.90
50013;DHT22;35901;48.694;9.476;2022-07-23T01:18:25;21.00;99.90
50013;DHT22;35901;48.694;9.476;2022-07-23T01:20:51;21.00;99.90
50013;DHT22;35901;48.694;9.476;2022-07-23T01:23:17;20.90;99.90
50013;DHT22;35901;48.694;9.476;2022-07-23T01:25:51;20.80;99.90
50013;DHT22;35901;48.694;9.476;2022-07-23T01:28:17;20.60;99.90
50013;DHT22;35901;48.694;9.476;2022-07-23T01:30:44;20.60;99.90
50013;DHT22;35901;48.694;9.476;2022-07-23T01:33:09;20.50;99.90
50013;DHT22;35901;48.694;9.476;2022-07-23T01:35:35;20.40;99.90
50013;DHT22;35901;48.694;9.476;2022-07-23T01:38:05;20.40;99.90
50013;DHT22;35901;48.694;9.476;2022-07-23T01:40:31;20.40;99.90
50013;DHT22;35901;48.694;9.476;2022-07-23T01:42:57;20.30;99.90
50013;DHT22;35901;48.694;9.476;2022-07-23T01:45:23;20.10;99.90
50013;DHT22;35901;48.694;9.476;2022-07-23T01:47:50;19.80;99.90
50013;DHT22;35901;48.694;9.476;2022-07-23T01:50:16;19.50;99.90
50013;DHT22;35901;48.694;9.476;2022-07-23T01:52:58;19.30;99.90
50013;DHT22;35901;48.694;9.476;2022-07-23T01:55:25;19.30;99.90
50013;DHT22;35901;48.694;9.476;2022-07-23T01:57:51;19.30;99.90
50013;DHT22;35901;48.694;9.476;2022-07-23T02:00:20;19.40;99.90
50013;DHT22;35901;48.694;9.476;2022-07-23T02:02:48;19.40;99.90
50013;DHT22;35901;48.694;9.476;2022-07-23T02:05:14;19.50;99.90
50013;DHT22;35901;48.694;9.476;2022-07-23T02:07:39;19.70;99.90
50013;DHT22;35901;48.694;9.476;2022-07-23T02:10:06;19.80;99.90
50013;DHT22;35901;48.694;9.476;2022-07-23T02:12:32;19.80;99.90
50013;DHT22;35901;48.694;9.476;2022-07-23T02:14:57;19.80;99.90
50013;DHT22;35901;48.694;9.476;2022-07-23T02:17:24;19.70;99.90
50013;DHT22;35901;48.694;9.476;2022-07-23T02:19:50;19.50;99.90
50013;DHT22;35901;48.694;9.476;2022-07-23T02:22:16;19.30;99.90
50013;DHT22;35901;48.694;9.476;2022-07-23T02:24:41;19.00;99.90
50013;DHT22;35901;48.694;9.476;2022-07-23T02:27:07;18.80;99.90
50013;DHT22;35901;48.694;9.476;2022-07-23T02:29:34;18.80;99.90
50013;DHT22;35901;48.694;9.476;2022-07-23T02:32:01;18.80;99.90
50013;DHT22;35901;48.694;9.476;2022-07-23T02:34:26;18.80;99.90
50013;DHT22;35901;48.694;9.476;2022-07-23T02:36:52;18.80;99.90
50013;DHT22;35901;48.694;9.476;2022-07-23T02:39:18;18.80;99.90
50013;DHT22;35901;48.694;9.476;2022-07-23T02:41:43;18.80;99.90
50013;DHT22;35901;48.694;9.476;2022-07-23T02:44:10;18.80;99.90
50013;DHT22;35901;48.694;9.476;2022-07-23T02:46:36;18.70;99.90
50013;DHT22;35901;48.694;9.476;2022-07-23T02:49:02;18.60;99.90
50013;DHT22;35901;48.694;9.476;2022-07-23T02:51:30;18.50;99.90
50013;DHT22;35901;48.694;9.476;2022-07-23T02:54:00;18.60;99.90
50013;DHT22;35901;48.694;9.476;2022-07-23T02:56:26;18.80;99.90
50013;DHT22;35901;48.694;9.476;2022-07-23T02:58:52;18.90;99.90
50013;DHT22;35901;48.694;9.476;2022-07-23T03:01:18;19.00;99.90
50013;DHT22;35901;48.694;9.476;2022-07-23T03:03:46;19.00;99.90
50013;DHT22;35901;48.694;9.476;2022-07-23T03:06:11;19.00;99.90
50013;DHT22;35901;48.694;9.476;2022-07-23T03:08:38;19.10;99.90
50013;DHT22;35901;48.694;9.476;2022-07-23T03:11:04;19.00;99.90
50013;DHT22;35901;48.694;9.476;2022-07-23T03:13:29;18.90;99.90
50013;DHT22;35901;48.694;9.476;2022-07-23T03:15:55;18.80;99.90
50013;DHT22;35901;48.694;9.476;2022-07-23T03:18:21;18.80;99.90
50013;DHT22;35901;48.694;9.476;2022-07-23T03:20:47;18.70;99.90
50013;DHT22;35901;48.694;9.476;2022-07-23T03:23:12;18.50;99.90
50013;DHT22;35901;48.694;9.476;2022-07-23T03:25:38;18.50;99.90
50013;DHT22;35901;48.694;9.476;2022-07-23T03:28:04;18.40;99.90
50013;DHT22;35901;48.694;9.476;2022-07-23T03:30:30;18.30;99.90
50013;DHT22;35901;48.694;9.476;2022-07-23T03:32:55;18.20;99.90
50013;DHT22;35901;48.694;9.476;2022-07-23T03:35:22;18.00;99.90
50013;DHT22;35901;48.694;9.476;2022-07-23T03:38:03;17.90;99.90
50013;DHT22;35901;48.694;9.476;2022-07-23T03:40:29;17.80;99.90
50013;DHT22;35901;48.694;9.476;2022-07-23T03:42:56;17.70;99.90
50013;DHT22;35901;48.694;9.476;2022-07-23T03:45:22;17.60;99.90
50013;DHT22;35901;48.694;9.476;2022-07-23T03:47:47;17.60;99.90
50013;DHT22;35901;48.694;9.476;2022-07-23T03:50:14;17.60;99.90
50013;DHT22;35901;48.694;9.476;2022-07-23T03:52:40;17.70;99.90
50013;DHT22;35901;48.694;9.476;2022-07-23T03:55:07;17.70;99.90
50013;DHT22;35901;48.694;9.476;2022-07-23T03:57:32;17.70;99.90
50013;DHT22;35901;48.694;9.476;2022-07-23T03:59:58;17.80;99.90
50013;DHT22;35901;48.694;9.476;2022-07-23T04:02:25;17.80;99.90
50013;DHT22;35901;48.694;9.476;2022-07-23T04:04:50;17.70;99.90
50013;DHT22;35901;48.694;9.476;2022-07-23T04:07:16;17.60;99.90
50013;DHT22;35901;48.694;9.476;2022-07-23T04:09:44;17.40;99.90
50013;DHT22;35901;48.694;9.476;2022-07-23T04:12:10;17.20;99.90
50013;DHT22;35901;48.694;9.476;2022-07-23T04:14:36;17.20;99.90
50013;DHT22;35901;48.694;9.476;2022-07-23T04:17:02;17.30;99.90
50013;DHT22;35901;48.694;9.476;2022-07-23T04:19:28;17.40;99.90
50013;DHT22;35901;48.694;9.476;2022-07-23T04:22:02;17.40;99.90
50013;DHT22;35901;48.694;9.476;2022-07-23T04:24:30;17.30;99.90
50013;DHT22;35901;48.694;9.476;2022-07-23T04:26:56;17.20;99.90
50013;DHT22;35901;48.694;9.476;2022-07-23T04:29:21;17.30;99.90
50013;DHT22;35901;48.694;9.476;2022-07-23T04:31:47;17.40;99.90
50013;DHT22;35901;48.694;9.476;2022-07-23T04:34:13;17.60;99.90
50013;DHT22;35901;48.694;9.476;2022-07-23T04:36:39;17.60;99.90
50013;DHT22;35901;48.694;9.476;2022-07-23T04:39:04;17.60;99.90
50013;DHT22;35901;48.694;9.476;2022-07-23T04:41:30;17.60;99.90
50013;DHT22;35901;48.694;9.476;2022-07-23T04:43:56;17.70;99.90
50013;DHT22;35901;48.694;9.476;2022-07-23T04:46:22;17.90;99.90
50013;DHT22;35901;48.694;9.476;2022-07-23T04:48:50;18.30;99.90
50013;DHT22;35901;48.694;9.476;2022-07-23T04:51:17;18.90;99.90
50013;DHT22;35901;48.694;9.476;2022-07-23T04:53:42;19.30;99.90
50013;DHT22;35901;48.694;9.476;2022-07-23T04:56:09;19.50;99.90
50013;DHT22;35901;48.694;9.476;2022-07-23T04:58:35;19.50;99.90
50013;DHT22;35901;48.694;9.476;2022-07-23T05:01:01;19.50;99.90
50013;DHT22;35901;48.694;9.476;2022-07-23T05:03:30;19.50;99.90
50013;DHT22;35901;48.694;9.476;2022-07-23T05:05:56;19.40;99.90
50013;DHT22;35901;48.694;9.476;2022-07-23T05:08:22;19.50;99.90
50013;DHT22;35901;48.694;9.476;2022-07-23T05:10:51;20.10;99.90
50013;DHT22;35901;48.694;9.476;2022-07-23T05:13:18;20.70;99.90
50013;DHT22;35901;48.694;9.476;2022-07-23T05:15:44;21.20;99.90
50013;DHT22;35901;48.694;9.476;2022-07-23T05:18:11;21.70;99.90
50013;DHT22;35901;48.694;9.476;2022-07-23T05:20:38;21.90;99.90
50013;DHT22;35901;48.694;9.476;2022-07-23T05:23:11;21.90;99.90
50013;DHT22;35901;48.694;9.476;2022-07-23T05:25:40;21.80;99.90
50013;DHT22;35901;48.694;9.476;2022-07-23T05:28:06;21.60;99.90
50013;DHT22;35901;48.694;9.476;2022-07-23T05:30:33;21.30;99.90
50013;DHT22;35901;48.694;9.476;2022-07-23T05:33:01;21.10;99.90
50013;DHT22;35901;48.694;9.476;2022-07-23T05:35:27;20.90;99.90
50013;DHT22;35901;48.694;9.476;2022-07-23T05:38:28;20.70;99.90
50013;DHT22;35901;48.694;9.476;2022-07-23T05:40:57;20.50;99.90
50013;DHT22;35901;48.694;9.476;2022-07-23T05:43:23;20.40;99.90
50013;DHT22;35901;48.694;9.476;2022-07-23T05:45:49;20.30;99.90
50013;DHT22;35901;48.694;9.476;2022-07-23T05:48:15;20.30;99.90
50013;DHT22;35901;48.694;9.476;2022-07-23T05:50:52;20.80;99.90
50013;DHT22;35901;48.694;9.476;2022-07-23T05:53:28;21.30;99.90
50013;DHT22;35901;48.694;9.476;2022-07-23T05:56:01;21.90;99.90
50013;DHT22;35901;48.694;9.476;2022-07-23T05:58:29;23.10;99.90
50013;DHT22;35901;48.694;9.476;2022-07-23T06:00:54;24.00;99.90
50013;DHT22;35901;48.694;9.476;2022-07-23T06:03:20;24.70;99.90
50013;DHT22;35901;48.694;9.476;2022-07-23T06:05:46;24.80;99.90
50013;DHT22;35901;48.694;9.476;2022-07-23T06:08:11;24.30;99.90
50013;DHT22;35901;48.694;9.476;2022-07-23T06:10:38;23.60;99.90
50013;DHT22;35901;48.694;9.476;2022-07-23T06:13:04;23.10;99.90
50013;DHT22;35901;48.694;9.476;2022-07-23T06:15:30;22.80;99.90
50013;DHT22;35901;48.694;9.476;2022-07-23T06:17:57;22.60;99.90
50013;DHT22;35901;48.694;9.476;2022-07-23T06:20:22;22.50;99.90
50013;DHT22;35901;48.694;9.476;2022-07-23T06:22:48;22.40;99.90
50013;DHT22;35901;48.694;9.476;2022-07-23T06:25:14;22.20;99.90
50013;DHT22;35901;48.694;9.476;2022-07-23T06:27:41;22.10;99.90
50013;DHT22;35901;48.694;9.476;2022-07-23T06:30:08;22.20;99.90
50013;DHT22;35901;48.694;9.476;2022-07-23T06:32:34;22.30;99.90
50013;DHT22;35901;48.694;9.476;2022-07-23T06:34:59;22.20;99.90
50013;DHT22;35901;48.694;9.476;2022-07-23T06:37:25;22.20;99.90
50013;DHT22;35901;48.694;9.476;2022-07-23T06:39:51;22.20;99.90
50013;DHT22;35901;48.694;9.476;2022-07-23T06:42:16;22.30;99.90
50013;DHT22;35901;48.694;9.476;2022-07-23T06:44:44;22.90;99.90
50013;DHT22;35901;48.694;9.476;2022-07-23T06:47:09;23.70;99.90
50013;DHT22;35901;48.694;9.476;2022-07-23T06:49:35;24.50;99.90
50013;DHT22;35901;48.694;9.476;2022-07-23T06:52:01;25.50;99.90
50013;DHT22;35901;48.694;9.476;2022-07-23T06:54:27;26.30;98.00
50013;DHT22;35901;48.694;9.476;2022-07-23T06:56:52;26.70;96.20
50013;DHT22;35901;48.694;9.476;2022-07-23T06:59:18;26.90;94.80
50013;DHT22;35901;48.694;9.476;2022-07-23T07:01:44;27.20;94.30
50013;DHT22;35901;48.694;9.476;2022-07-23T07:04:10;26.90;93.90
50013;DHT22;35901;48.694;9.476;2022-07-23T07:07:01;26.30;93.90
50013;DHT22;35901;48.694;9.476;2022-07-23T07:35:04;25.80;92.50
50013;DHT22;35901;48.694;9.476;2022-07-23T07:37:30;25.80;92.10
50013;DHT22;35901;48.694;9.476;2022-07-23T07:39:55;25.70;92.40
50013;DHT22;35901;48.694;9.476;2022-07-23T07:42:21;25.60;92.10
50013;DHT22;35901;48.694;9.476;2022-07-23T07:44:47;25.60;92.00
50013;DHT22;35901;48.694;9.476;2022-07-23T07:47:12;25.50;91.80
50013;DHT22;35901;48.694;9.476;2022-07-23T07:49:41;25.60;91.60
50013;DHT22;35901;48.694;9.476;2022-07-23T07:52:07;26.20;91.10
50013;DHT22;35901;48.694;9.476;2022-07-23T07:54:32;26.80;90.50
50013;DHT22;35901;48.694;9.476;2022-07-23T07:56:58;27.40;89.40
50013;DHT22;35901;48.694;9.476;2022-07-23T07:59:24;27.80;86.00
50013;DHT22;35901;48.694;9.476;2022-07-23T08:01:49;27.70;84.90
50013;DHT22;35901;48.694;9.476;2022-07-23T08:04:15;27.40;82.30
50013;DHT22;35901;48.694;9.476;2022-07-23T08:06:41;27.40;82.50
50013;DHT22;35901;48.694;9.476;2022-07-23T08:09:06;27.70;82.70
50013;DHT22;35901;48.694;9.476;2022-07-23T08:11:32;27.70;79.40
50013;DHT22;35901;48.694;9.476;2022-07-23T08:13:57;27.60;77.90
50013;DHT22;35901;48.694;9.476;2022-07-23T08:16:23;27.20;77.20
50013;DHT22;35901;48.694;9.476;2022-07-23T08:18:49;27.10;77.80
50013;DHT22;35901;48.694;9.476;2022-07-23T08:21:15;27.20;78.10
50013;DHT22;35901;48.694;9.476;2022-07-23T08:23:40;27.30;77.80
50013;DHT22;35901;48.694;9.476;2022-07-23T08:26:06;27.50;76.90
50013;DHT22;35901;48.694;9.476;2022-07-23T08:28:32;27.20;77.50
50013;DHT22;35901;48.694;9.476;2022-07-23T08:30:59;27.40;76.40
50013;DHT22;35901;48.694;9.476;2022-07-23T08:33:25;27.10;75.10
50013;DHT22;35901;48.694;9.476;2022-07-23T08:35:51;27.00;77.00
50013;DHT22;35901;48.694;9.476;2022-07-23T08:38:21;27.20;75.80
50013;DHT22;35901;48.694;9.476;2022-07-23T08:40:49;27.40;76.00
50013;DHT22;35901;48.694;9.476;2022-07-23T08:43:24;27.90;76.30
50013;DHT22;35901;48.694;9.476;2022-07-23T08:45:52;28.40;74.50
50013;DHT22;35901;48.694;9.476;2022-07-23T08:48:22;28.60;74.10
50013;DHT22;35901;48.694;9.476;2022-07-23T08:50:51;28.90;72.40
50013;DHT22;35901;48.694;9.476;2022-07-23T08:53:18;28.70;71.60
50013;DHT22;35901;48.694;9.476;2022-07-23T08:55:45;28.60;72.10
50013;DHT22;35901;48.694;9.476;2022-07-23T08:58:11;28.60;72.30
50013;DHT22;35901;48.694;9.476;2022-07-23T09:00:37;28.70;72.30
50013;DHT22;35901;48.694;9.476;2022-07-23T09:03:03;28.80;70.70
50013;DHT22;35901;48.694;9.476;2022-07-23T09:05:29;28.70;70.20
50013;DHT22;35901;48.694;9.476;2022-07-23T09:08:45;28.30;71.30
50013;DHT22;35901;48.694;9.476;2022-07-23T09:11:18;28.10;72.50
50013;DHT22;35901;48.694;9.476;2022-07-23T09:13:52;28.10;72.90
50013;DHT22;35901;48.694;9.476;2022-07-23T09:16:27;28.20;72.10
50013;DHT22;35901;48.694;9.476;2022-07-23T09:18:55;28.20;71.80
50013;DHT22;35901;48.694;9.476;2022-07-23T09:21:27;28.10;72.40
50013;DHT22;35901;48.694;9.476;2022-07-23T09:24:04;28.00;72.80
50013;DHT22;35901;48.694;9.476;2022-07-23T09:26:35;27.70;73.40
50013;DHT22;35901;48.694;9.476;2022-07-23T09:31:42;27.00;74.30
50013;DHT22;35901;48.694;9.476;2022-07-23T09:34:16;27.10;74.80
50013;DHT22;35901;48.694;9.476;2022-07-23T09:36:42;27.60;75.20
50013;DHT22;35901;48.694;9.476;2022-07-23T09:39:09;28.00;74.40
50013;DHT22;35901;48.694;9.476;2022-07-23T09:41:37;28.10;73.30
50013;DHT22;35901;48.694;9.476;2022-07-23T09:44:08;28.10;72.40
50013;DHT22;35901;48.694;9.476;2022-07-23T09:46:35;28.20;72.50
50013;DHT22;35901;48.694;9.476;2022-07-23T09:49:10;28.30;72.70
50013;DHT22;35901;48.694;9.476;2022-07-23T09:51:49;28.50;71.30
50013;DHT22;35901;48.694;9.476;2022-07-23T09:57:17;28.10;71.30
50013;DHT22;35901;48.694;9.476;2022-07-23T09:59:44;28.10;71.70
50013;DHT22;35901;48.694;9.476;2022-07-23T10:02:12;28.20;71.50
50013;DHT22;35901;48.694;9.476;2022-07-23T10:04:54;28.50;71.30
50013;DHT22;35901;48.694;9.476;2022-07-23T10:07:35;28.90;69.90
50013;DHT22;35901;48.694;9.476;2022-07-23T10:10:39;28.80;69.80
50013;DHT22;35901;48.694;9.476;2022-07-23T10:13:20;28.40;70.20
50013;DHT22;35901;48.694;9.476;2022-07-23T10:16:00;28.20;70.90
50013;DHT22;35901;48.694;9.476;2022-07-23T10:18:26;28.20;71.10
50013;DHT22;35901;48.694;9.476;2022-07-23T10:20:52;28.50;71.30
50013;DHT22;35901;48.694;9.476;2022-07-23T10:23:31;28.70;70.70
50013;DHT22;35901;48.694;9.476;2022-07-23T10:26:40;28.90;70.00
50013;DHT22;35901;48.694;9.476;2022-07-23T10:32:00;29.60;70.10
50013;DHT22;35901;48.694;9.476;2022-07-23T10:34:48;29.70;68.90
50013;DHT22;35901;48.694;9.476;2022-07-23T10:42:36;29.70;68.90
50013;DHT22;35901;48.694;9.476;2022-07-23T10:47:49;30.30;66.50
50013;DHT22;35901;48.694;9.476;2022-07-23T10:50:27;30.50;65.40
50013;DHT22;35901;48.694;9.476;2022-07-23T10:53:16;30.50;64.90
50013;DHT22;35901;48.694;9.476;2022-07-23T10:55:51;30.20;64.60
50013;DHT22;35901;48.694;9.476;2022-07-23T10:58:22;29.90;66.30
50013;DHT22;35901;48.694;9.476;2022-07-23T11:00:48;30.10;66.80
50013;DHT22;35901;48.694;9.476;2022-07-23T11:03:34;30.50;65.30
50013;DHT22;35901;48.694;9.476;2022-07-23T11:06:04;30.60;63.80
50013;DHT22;35901;48.694;9.476;2022-07-23T11:08:31;30.30;63.70
50013;DHT22;35901;48.694;9.476;2022-07-23T11:26:53;31.00;64.00
50013;DHT22;35901;48.694;9.476;2022-07-23T11:31:58;30.90;62.60
50013;DHT22;35901;48.694;9.476;2022-07-23T11:34:33;30.80;63.40
50013;DHT22;35901;48.694;9.476;2022-07-23T11:37:01;30.80;64.00
50013;DHT22;35901;48.694;9.476;2022-07-23T11:39:28;31.10;63.50
50013;DHT22;35901;48.694;9.476;2022-07-23T11:41:56;31.20;61.70
50013;DHT22;35901;48.694;9.476;2022-07-23T11:44:30;31.30;62.60
50013;DHT22;35901;48.694;9.476;2022-07-23T11:47:07;31.70;63.30
50013;DHT22;35901;48.694;9.476;2022-07-23T11:49:33;31.80;60.40
50013;DHT22;35901;48.694;9.476;2022-07-23T11:52:07;31.50;60.20
50013;DHT22;35901;48.694;9.476;2022-07-23T11:54:35;31.30;60.40
50013;DHT22;35901;48.694;9.476;2022-07-23T11:57:02;31.00;60.00
50013;DHT22;35901;48.694;9.476;2022-07-23T11:59:31;30.80;61.00
50013;DHT22;35901;48.694;9.476;2022-07-23T12:02:03;30.80;61.50
50013;DHT22;35901;48.694;9.476;2022-07-23T12:04:40;30.70;63.10
50013;DHT22;35901;48.694;9.476;2022-07-23T12:10:19;30.30;62.60
50013;DHT22;35901;48.694;9.476;2022-07-23T12:12:50;30.30;62.00
50013;DHT22;35901;48.694;9.476;2022-07-23T12:15:19;30.50;62.80
50013;DHT22;35901;48.694;9.476;2022-07-23T12:17:47;30.90;61.90
50013;DHT22;35901;48.694;9.476;2022-07-23T12:20:21;30.90;60.80
50013;DHT22;35901;48.694;9.476;2022-07-23T12:22:50;30.60;60.60
50013;DHT22;35901;48.694;9.476;2022-07-23T12:25:21;30.20;61.70
50013;DHT22;35901;48.694;9.476;2022-07-23T12:30:38;29.90;62.10
50013;DHT22;35901;48.694;9.476;2022-07-23T12:33:04;30.20;62.20
50013;DHT22;35901;48.694;9.476;2022-07-23T12:38:02;30.10;62.30
50013;DHT22;35901;48.694;9.476;2022-07-23T12:40:35;29.90;60.90
50013;DHT22;35901;48.694;9.476;2022-07-23T12:43:07;29.70;61.80
50013;DHT22;35901;48.694;9.476;2022-07-23T12:45:51;30.00;61.50
50013;DHT22;35901;48.694;9.476;2022-07-23T12:48:24;30.20;62.60
50013;DHT22;35901;48.694;9.476;2022-07-23T12:50:58;30.50;62.10
50013;DHT22;35901;48.694;9.476;2022-07-23T12:53:42;30.90;61.20
50013;DHT22;35901;48.694;9.476;2022-07-23T12:56:15;31.20;59.90
50013;DHT22;35901;48.694;9.476;2022-07-23T12:58:45;31.20;60.00
50013;DHT22;35901;48.694;9.476;2022-07-23T13:01:26;31.30;60.10
50013;DHT22;35901;48.694;9.476;2022-07-23T13:04:05;31.50;59.40
50013;DHT22;35901;48.694;9.476;2022-07-23T13:06:52;31.40;59.10
50013;DHT22;35901;48.694;9.476;2022-07-23T13:09:23;31.30;58.80
50013;DHT22;35901;48.694;9.476;2022-07-23T13:11:51;31.20;59.80
50013;DHT22;35901;48.694;9.476;2022-07-23T13:14:18;31.00;59.70
50013;DHT22;35901;48.694;9.476;2022-07-23T13:16:44;30.80;59.50
50013;DHT22;35901;48.694;9.476;2022-07-23T13:19:10;30.90;59.70
50013;DHT22;35901;48.694;9.476;2022-07-23T13:21:36;31.10;60.30
50013;DHT22;35901;48.694;9.476;2022-07-23T13:24:02;31.30;59.80
50013;DHT22;35901;48.694;9.476;2022-07-23T13:26:28;31.40;60.00
50013;DHT22;35901;48.694;9.476;2022-07-23T13:28:54;31.50;59.60
50013;DHT22;35901;48.694;9.476;2022-07-23T13:31:20;31.50;59.90
50013;DHT22;35901;48.694;9.476;2022-07-23T13:33:48;31.70;59.00
50013;DHT22;35901;48.694;9.476;2022-07-23T13:36:14;31.70;58.60
50013;DHT22;35901;48.694;9.476;2022-07-23T13:38:39;31.50;58.00
50013;DHT22;35901;48.694;9.476;2022-07-23T13:41:05;31.00;58.60
50013;DHT22;35901;48.694;9.476;2022-07-23T13:43:31;31.00;59.10
50013;DHT22;35901;48.694;9.476;2022-07-23T13:45:57;31.00;59.80
50013;DHT22;35901;48.694;9.476;2022-07-23T13:48:23;31.00;60.00
50013;DHT22;35901;48.694;9.476;2022-07-23T13:50:49;31.20;60.90
50013;DHT22;35901;48.694;9.476;2022-07-23T13:53:20;31.40;58.70
50013;DHT22;35901;48.694;9.476;2022-07-23T13:55:47;30.70;58.90
50013;DHT22;35901;48.694;9.476;2022-07-23T13:58:13;30.30;60.00
50013;DHT22;35901;48.694;9.476;2022-07-23T14:00:45;30.20;62.00
50013;DHT22;35901;48.694;9.476;2022-07-23T14:03:12;30.30;63.00
50013;DHT22;35901;48.694;9.476;2022-07-23T14:05:38;30.40;61.30
50013;DHT22;35901;48.694;9.476;2022-07-23T14:08:04;30.30;62.30
50013;DHT22;35901;48.694;9.476;2022-07-23T14:10:30;30.10;62.20
50013;DHT22;35901;48.694;9.476;2022-07-23T14:12:56;30.00;62.90
50013;DHT22;35901;48.694;9.476;2022-07-23T14:15:27;29.90;63.10
50013;DHT22;35901;48.694;9.476;2022-07-23T14:17:54;30.10;63.90
50013;DHT22;35901;48.694;9.476;2022-07-23T14:20:20;29.90;63.40
50013;DHT22;35901;48.694;9.476;2022-07-23T14:22:46;29.90;63.40
50013;DHT22;35901;48.694;9.476;2022-07-23T14:25:12;30.10;63.30
50013;DHT22;35901;48.694;9.476;2022-07-23T14:27:38;30.40;63.20
50013;DHT22;35901;48.694;9.476;2022-07-23T14:30:05;30.60;63.10
50013;DHT22;35901;48.694;9.476;2022-07-23T14:32:32;30.60;62.50
50013;DHT22;35901;48.694;9.476;2022-07-23T14:34:58;30.20;61.80
50013;DHT22;35901;48.694;9.476;2022-07-23T14:37:23;29.80;62.90
50013;DHT22;35901;48.694;9.476;2022-07-23T14:39:50;29.40;63.70
50013;DHT22;35901;48.694;9.476;2022-07-23T14:42:16;29.10;64.20
50013;DHT22;35901;48.694;9.476;2022-07-23T14:44:41;28.90;65.10
50013;DHT22;35901;48.694;9.476;2022-07-23T14:47:08;28.70;64.80
50013;DHT22;35901;48.694;9.476;2022-07-23T14:49:34;28.50;64.90
50013;DHT22;35901;48.694;9.476;2022-07-23T14:52:00;28.30;65.30
50013;DHT22;35901;48.694;9.476;2022-07-23T14:54:27;28.30;66.20
50013;DHT22;35901;48.694;9.476;2022-07-23T14:56:54;28.60;67.50
50013;DHT22;35901;48.694;9.476;2022-07-23T14:59:19;29.00;67.80
50013;DHT22;35901;48.694;9.476;2022-07-23T15:01:45;29.40;68.00
50013;DHT22;35901;48.694;9.476;2022-07-23T15:04:11;29.50;65.30
50013;DHT22;35901;48.694;9.476;2022-07-23T15:06:36;29.50;63.90
50013;DHT22;35901;48.694;9.476;2022-07-23T15:09:04;29.40;63.50
50013;DHT22;35901;48.694;9.476;2022-07-23T15:11:30;29.50;63.70
50013;DHT22;35901;48.694;9.476;2022-07-23T15:14:02;29.60;63.50
50013;DHT22;35901;48.694;9.476;2022-07-23T15:16:28;29.60;63.00
50013;DHT22;35901;48.694;9.476;2022-07-23T15:18:54;29.60;63.40
50013;DHT22;35901;48.694;9.476;2022-07-23T15:21:20;29.50;64.00
50013;DHT22;35901;48.694;9.476;2022-07-23T15:23:46;29.60;65.40
50013;DHT22;35901;48.694;9.476;2022-07-23T15:26:12;29.60;64.10
50013;DHT22;35901;48.694;9.476;2022-07-23T15:28:40;29.70;63.80
50013;DHT22;35901;48.694;9.476;2022-07-23T15:31:12;29.60;64.70
50013;DHT22;35901;48.694;9.476;2022-07-23T15:34:12;29.30;64.30
50013;DHT22;35901;48.694;9.476;2022-07-23T15:36:52;29.40;64.80
50013;DHT22;35901;48.694;9.476;2022-07-23T15:39:18;29.20;64.10
50013;DHT22;35901;48.694;9.476;2022-07-23T15:41:43;29.10;64.50
50013;DHT22;35901;48.694;9.476;2022-07-23T15:44:09;29.20;65.00
50013;DHT22;35901;48.694;9.476;2022-07-23T15:46:37;29.30;64.70
50013;DHT22;35901;48.694;9.476;2022-07-23T15:49:03;29.30;64.40
50013;DHT22;35901;48.694;9.476;2022-07-23T15:51:28;29.20;63.70
50013;DHT22;35901;48.694;9.476;2022-07-23T15:53:54;29.00;63.30
50013;DHT22;35901;48.694;9.476;2022-07-23T15:56:20;28.70;64.80
50013;DHT22;35901;48.694;9.476;2022-07-23T15:58:46;28.10;65.70
50013;DHT22;35901;48.694;9.476;2022-07-23T16:01:12;28.10;67.30
50013;DHT22;35901;48.694;9.476;2022-07-23T16:03:38;27.90;68.20
50013;DHT22;35901;48.694;9.476;2022-07-23T16:06:05;27.80;70.40
50013;DHT22;35901;48.694;9.476;2022-07-23T16:08:31;27.70;70.90
50013;DHT22;35901;48.694;9.476;2022-07-23T16:10:57;27.70;70.80
50013;DHT22;35901;48.694;9.476;2022-07-23T16:13:24;27.60;70.30
50013;DHT22;35901;48.694;9.476;2022-07-23T16:15:50;27.40;71.20
50013;DHT22;35901;48.694;9.476;2022-07-23T16:18:16;27.30;72.30
50013;DHT22;35901;48.694;9.476;2022-07-23T16:20:42;27.10;73.60
50013;DHT22;35901;48.694;9.476;2022-07-23T16:23:08;26.90;74.70
50013;DHT22;35901;48.694;9.476;2022-07-23T16:25:34;26.80;77.30
50013;DHT22;35901;48.694;9.476;2022-07-23T16:28:00;26.70;77.40
50013;DHT22;35901;48.694;9.476;2022-07-23T16:30:27;27.10;76.50
50013;DHT22;35901;48.694;9.476;2022-07-23T16:32:53;27.50;72.20
50013;DHT22;35901;48.694;9.476;2022-07-23T16:35:20;27.90;70.30
50013;DHT22;35901;48.694;9.476;2022-07-23T16:37:46;28.10;69.70
50013;DHT22;35901;48.694;9.476;2022-07-23T16:40:11;28.00;70.60
50013;DHT22;35901;48.694;9.476;2022-07-23T16:42:37;27.90;71.60
50013;DHT22;35901;48.694;9.476;2022-07-23T16:45:15;27.70;71.10